createdAt,value
2018-07-13T00:00:47.625Z,5.78
2018-07-13T00:03:16.457Z,5.93
2018-07-13T00:05:45.310Z,5.62
2018-07-13T00:08:14.155Z,5.03
2018-07-13T00:10:42.998Z,5.57
2018-07-13T00:13:12.575Z,5.25
2018-07-13T00:15:41.412Z,6.00
2018-07-13T00:18:10.257Z,5.75
2018-07-13T00:20:39.085Z,5.93
2018-07-13T00:23:08.666Z,6.15
2018-07-13T00:25:37.507Z,6.70
2018-07-13T00:28:06.344Z,6.90
2018-07-13T00:30:35.199Z,6.10
2018-07-13T00:33:04.050Z,6.85
2018-07-13T00:35:32.882Z,6.00
2018-07-13T00:38:01.719Z,6.43
2018-07-13T00:40:30.565Z,6.28
2018-07-13T00:42:59.397Z,6.62
2018-07-13T00:45:28.234Z,6.50
2018-07-13T00:47:57.073Z,6.70
2018-07-13T00:50:26.651Z,6.30
2018-07-13T00:52:56.233Z,6.07
2018-07-13T00:55:25.074Z,7.10
2018-07-13T00:57:54.697Z,6.97
2018-07-13T01:00:23.533Z,6.70
2018-07-13T01:02:52.369Z,7.00
2018-07-13T01:05:21.205Z,6.80
2018-07-13T01:07:50.046Z,6.47
2018-07-13T01:10:19.626Z,6.47
2018-07-13T01:12:48.462Z,6.97
2018-07-13T01:15:17.317Z,6.85
2018-07-13T01:17:46.891Z,6.45
2018-07-13T01:20:15.742Z,7.05
2018-07-13T01:22:44.588Z,6.22
2018-07-13T01:25:13.440Z,6.75
2018-07-13T01:27:42.278Z,6.35
2018-07-13T01:30:11.114Z,6.87
2018-07-13T01:32:39.951Z,6.65
2018-07-13T01:35:09.562Z,6.75
2018-07-13T01:37:38.398Z,6.05
2018-07-13T01:40:07.231Z,6.60
2018-07-13T01:42:36.076Z,6.63
2018-07-13T01:45:04.916Z,6.73
2018-07-13T01:47:33.758Z,6.53
2018-07-13T01:50:02.594Z,6.77
2018-07-13T01:52:31.440Z,7.57
2018-07-13T01:55:00.273Z,7.30
2018-07-13T01:57:29.115Z,7.27
2018-07-13T01:59:57.956Z,7.30
2018-07-13T02:02:26.799Z,7.30
2018-07-13T02:04:55.632Z,7.40
2018-07-13T02:07:24.476Z,7.50
2018-07-13T02:09:53.306Z,7.80
2018-07-13T02:12:22.145Z,7.37
2018-07-13T02:14:50.981Z,8.65
2018-07-13T02:17:19.824Z,7.27
2018-07-13T02:19:48.666Z,6.77
2018-07-13T02:22:17.512Z,6.70
2018-07-13T02:24:46.373Z,7.75
2018-07-13T02:27:15.234Z,6.80
2018-07-13T02:29:44.088Z,7.73
2018-07-13T02:32:12.911Z,7.57
2018-07-13T02:34:41.752Z,7.33
2018-07-13T02:37:11.347Z,7.17
2018-07-13T02:39:40.918Z,7.90
2018-07-13T02:42:09.756Z,6.93
2018-07-13T02:44:39.357Z,7.17
2018-07-13T02:47:08.198Z,6.67
2018-07-13T02:49:37.061Z,7.70
2018-07-13T02:52:05.903Z,7.20
2018-07-13T02:54:34.742Z,7.60
2018-07-13T02:57:04.339Z,7.50
2018-07-13T02:59:33.174Z,6.83
2018-07-13T03:02:02.023Z,7.23
2018-07-13T03:04:30.845Z,6.83
2018-07-13T03:07:00.427Z,8.03
2018-07-13T03:09:29.280Z,7.93
2018-07-13T03:11:58.395Z,8.13
2018-07-13T03:14:27.559Z,7.87
2018-07-13T03:16:56.408Z,8.00
2018-07-13T03:19:25.844Z,7.53
2018-07-13T03:21:54.678Z,7.20
2018-07-13T03:24:23.529Z,7.00
2018-07-13T03:26:52.379Z,7.80
2018-07-13T03:29:21.212Z,7.00
2018-07-13T03:31:50.072Z,7.50
2018-07-13T03:34:18.920Z,7.97
2018-07-13T03:36:47.755Z,8.27
2018-07-13T03:39:16.600Z,8.37
2018-07-13T03:41:45.451Z,7.90
2018-07-13T03:44:14.298Z,7.87
2018-07-13T03:46:43.144Z,8.07
2018-07-13T03:49:12.002Z,8.33
2018-07-13T03:51:41.587Z,8.00
2018-07-13T03:54:11.216Z,7.37
2018-07-13T03:56:40.018Z,7.33
2018-07-13T03:59:09.741Z,7.00
2018-07-13T04:01:38.565Z,7.30
2018-07-13T04:04:07.398Z,7.90
2018-07-13T04:06:36.283Z,8.03
2018-07-13T04:09:05.074Z,6.93
2018-07-13T04:11:34.655Z,7.33
2018-07-13T04:14:03.502Z,7.63
2018-07-13T04:16:32.335Z,6.90
2018-07-13T04:19:01.170Z,7.67
2018-07-13T04:21:30.014Z,8.37
2018-07-13T04:23:58.862Z,9.50
2018-07-13T04:26:27.729Z,8.47
2018-07-13T04:28:57.306Z,9.30
2018-07-13T04:31:26.165Z,8.97
2018-07-13T04:33:54.999Z,9.60
2018-07-13T04:36:24.623Z,8.27
2018-07-13T04:38:54.214Z,8.90
2018-07-13T04:41:23.100Z,8.80
2018-07-13T04:43:51.939Z,9.48
2018-07-13T04:46:20.775Z,8.20
2018-07-13T04:48:49.631Z,7.77
2018-07-13T04:51:18.467Z,9.18
2018-07-13T04:53:47.326Z,9.17
2018-07-13T04:56:16.172Z,10.40
2018-07-13T04:58:45.021Z,9.60
2018-07-13T05:01:13.876Z,10.40
2018-07-13T05:03:42.740Z,9.47
2018-07-13T05:06:11.597Z,10.23
2018-07-13T05:08:40.411Z,9.80
2018-07-13T05:11:09.249Z,10.87
2018-07-13T05:13:38.094Z,11.67
2018-07-13T05:16:06.975Z,11.23
2018-07-13T05:18:35.833Z,10.87
2018-07-13T05:21:04.733Z,12.27
2018-07-13T05:23:33.546Z,11.13
2018-07-13T05:26:02.395Z,11.53
2018-07-13T05:28:31.250Z,10.87
2018-07-13T05:31:00.094Z,10.17
2018-07-13T05:33:28.943Z,10.13
2018-07-13T05:35:57.815Z,10.57
2018-07-13T05:38:26.745Z,11.07
2018-07-13T05:40:55.515Z,11.83
2018-07-13T05:43:24.363Z,13.65
2018-07-13T05:45:53.243Z,12.37
2018-07-13T05:48:22.091Z,11.03
2018-07-13T05:50:50.929Z,11.00
2018-07-13T05:53:20.513Z,10.93
2018-07-13T05:55:49.361Z,13.10
2018-07-13T05:58:18.208Z,12.57
2018-07-13T06:00:47.067Z,12.37
2018-07-13T06:03:15.919Z,13.93
2018-07-13T06:05:44.763Z,14.47
2018-07-13T06:08:13.612Z,14.03
2018-07-13T06:10:42.467Z,13.03
2018-07-13T06:13:12.053Z,13.77
2018-07-13T06:15:40.905Z,15.43
2018-07-13T06:18:09.745Z,17.00
2018-07-13T06:20:38.595Z,16.10
2018-07-13T06:23:07.452Z,14.20
2018-07-13T06:25:37.029Z,14.63
2018-07-13T06:28:05.880Z,16.95
2018-07-13T06:30:34.729Z,14.53
2018-07-13T06:33:04.326Z,16.37
2018-07-13T06:35:33.162Z,14.93
2018-07-13T06:38:02.007Z,15.67
2018-07-13T06:40:30.875Z,16.07
2018-07-13T06:42:59.745Z,19.45
2018-07-13T06:45:28.587Z,16.33
2018-07-13T06:47:57.437Z,16.17
2018-07-13T06:50:26.332Z,16.50
2018-07-13T06:52:55.116Z,15.97
2018-07-13T06:55:23.962Z,15.20
2018-07-13T06:58:09.669Z,14.13
2018-07-13T07:00:38.548Z,13.63
2018-07-13T07:03:07.390Z,12.95
2018-07-13T07:05:36.234Z,11.12
2018-07-13T07:08:05.832Z,11.20
2018-07-13T07:10:34.681Z,10.70
2018-07-13T07:13:03.527Z,11.30
2018-07-13T07:15:33.112Z,10.37
2018-07-13T07:18:01.956Z,10.63
2018-07-13T07:20:30.812Z,10.45
2018-07-13T07:23:00.414Z,10.65
2018-07-13T07:25:30.037Z,9.98
2018-07-13T07:27:58.886Z,9.45
2018-07-13T07:30:27.735Z,9.57
2018-07-13T07:32:56.599Z,9.40
2018-07-13T07:35:26.182Z,8.25
2018-07-13T07:37:55.034Z,8.65
2018-07-13T07:40:23.873Z,9.20
2018-07-13T07:42:53.477Z,8.73
2018-07-13T07:45:22.323Z,7.95
2018-07-13T07:47:51.178Z,7.93
2018-07-13T07:50:20.028Z,7.95
2018-07-13T07:52:49.612Z,8.00
2018-07-13T07:55:18.445Z,7.72
2018-07-13T07:57:48.031Z,7.78
2018-07-13T08:00:16.885Z,7.68
2018-07-13T08:02:45.773Z,7.78
2018-07-13T08:05:15.330Z,7.72
2018-07-13T08:07:44.241Z,7.32
2018-07-13T08:10:13.031Z,8.02
2018-07-13T08:12:42.616Z,7.90
2018-07-13T08:15:11.486Z,8.43
2018-07-13T08:17:40.312Z,9.27
2018-07-13T08:20:09.204Z,7.28
2018-07-13T08:22:38.788Z,8.10
2018-07-13T08:25:08.553Z,6.85
2018-07-13T08:27:37.321Z,8.60
2018-07-13T08:30:06.184Z,8.63
2018-07-13T08:32:35.052Z,7.32
2018-07-13T08:35:03.894Z,8.35
2018-07-13T08:37:32.742Z,7.45
2018-07-13T08:40:01.592Z,8.13
2018-07-13T08:42:30.425Z,8.15
2018-07-13T08:44:59.268Z,7.18
2018-07-13T08:47:28.113Z,7.62
2018-07-13T08:49:56.972Z,8.13
2018-07-13T08:52:25.811Z,8.65
2018-07-13T08:54:54.660Z,7.10
2018-07-13T08:57:23.492Z,7.87
2018-07-13T08:59:53.151Z,7.12
2018-07-13T09:02:21.927Z,6.03
2018-07-13T09:04:50.816Z,6.12
2018-07-13T09:07:19.622Z,5.20
2018-07-13T09:09:48.463Z,5.47
2018-07-13T09:12:18.046Z,4.80
2018-07-13T09:14:47.658Z,6.18
2018-07-13T09:17:17.072Z,6.68
2018-07-13T09:19:45.915Z,5.95
2018-07-13T09:22:14.745Z,5.93
2018-07-13T09:24:44.331Z,6.20
2018-07-13T09:27:13.199Z,5.72
2018-07-13T09:29:42.040Z,4.40
2018-07-13T09:32:11.622Z,3.75
2018-07-13T09:34:40.475Z,4.47
2018-07-13T09:37:09.321Z,4.87
2018-07-13T09:39:38.900Z,5.07
2018-07-13T09:42:07.739Z,4.20
2018-07-13T09:44:37.345Z,4.25
2018-07-13T09:47:06.929Z,3.72
2018-07-13T09:49:35.770Z,3.90
2018-07-13T09:52:05.354Z,4.18
2018-07-13T09:54:34.195Z,5.05
2018-07-13T09:57:03.025Z,5.05
2018-07-13T09:59:31.866Z,6.10
2018-07-13T10:02:00.719Z,5.70
2018-07-13T10:04:29.574Z,5.30
2018-07-13T10:06:58.423Z,5.95
2018-07-13T10:09:27.264Z,5.87
2018-07-13T10:11:56.691Z,5.47
2018-07-13T10:14:25.543Z,5.28
2018-07-13T10:16:54.388Z,4.57
2018-07-13T10:19:23.240Z,5.45
2018-07-13T10:21:52.078Z,5.22
2018-07-13T10:24:20.944Z,5.35
2018-07-13T10:26:50.527Z,5.00
2018-07-13T10:29:19.492Z,5.45
2018-07-13T10:31:48.205Z,4.43
2018-07-13T10:34:17.102Z,5.20
2018-07-13T10:36:45.966Z,5.75
2018-07-13T10:39:14.800Z,5.00
2018-07-13T10:41:44.383Z,4.80
2018-07-13T10:44:13.250Z,4.07
2018-07-13T10:46:42.090Z,5.87
2018-07-13T10:49:11.674Z,4.70
2018-07-13T10:51:40.524Z,5.05
2018-07-13T10:54:09.356Z,4.90
2018-07-13T10:56:38.940Z,4.50
2018-07-13T10:59:07.779Z,4.85
2018-07-13T11:01:36.624Z,4.32
2018-07-13T11:04:05.474Z,4.43
2018-07-13T11:06:34.310Z,4.57
2018-07-13T11:09:03.169Z,4.28
2018-07-13T11:11:31.999Z,4.90
2018-07-13T11:14:01.631Z,3.67
2018-07-13T11:16:31.016Z,4.40
2018-07-13T11:18:59.891Z,3.70
2018-07-13T11:21:29.323Z,4.30
2018-07-13T11:23:58.170Z,4.18
2018-07-13T11:26:27.013Z,4.60
2018-07-13T11:28:55.849Z,4.57
2018-07-13T11:31:24.693Z,4.30
2018-07-13T11:33:53.533Z,4.28
2018-07-13T11:36:22.392Z,4.40
2018-07-13T11:38:51.240Z,4.15
2018-07-13T11:41:20.087Z,3.65
2018-07-13T11:43:48.925Z,3.80
2018-07-13T11:46:18.517Z,4.20
2018-07-13T11:48:47.342Z,3.70
2018-07-13T11:51:16.177Z,3.22
2018-07-13T11:53:45.039Z,4.30
2018-07-13T11:56:13.874Z,4.43
2018-07-13T11:58:43.457Z,4.20
2018-07-13T12:01:13.031Z,4.67
2018-07-13T12:03:41.862Z,3.97
2018-07-13T12:06:10.710Z,4.10
2018-07-13T12:08:39.553Z,4.03
2018-07-13T12:11:08.386Z,3.85
2018-07-13T12:13:37.236Z,4.00
2018-07-13T12:16:06.820Z,4.05
2018-07-13T12:18:35.654Z,4.50
2018-07-13T12:21:04.502Z,3.22
2018-07-13T12:23:33.361Z,3.72
2018-07-13T12:26:02.198Z,3.87
2018-07-13T12:28:31.046Z,3.72
2018-07-13T12:30:59.894Z,3.47
2018-07-13T12:33:28.743Z,3.45
2018-07-13T12:35:57.581Z,3.28
2018-07-13T12:38:26.426Z,3.80
2018-07-13T12:40:55.289Z,3.53
2018-07-13T12:43:24.118Z,4.12
2018-07-13T12:45:52.961Z,3.72
2018-07-13T12:48:21.802Z,3.87
2018-07-13T12:50:50.633Z,4.18
2018-07-13T12:53:19.474Z,4.18
2018-07-13T12:55:48.326Z,3.60
2018-07-13T12:58:17.173Z,3.87
2018-07-13T13:00:46.025Z,3.67
2018-07-13T13:03:14.868Z,4.12
2018-07-13T13:05:43.751Z,3.50
2018-07-13T13:08:12.561Z,3.78
2018-07-13T13:10:41.405Z,3.58
2018-07-13T13:13:10.241Z,3.80
2018-07-13T13:15:39.098Z,3.80
2018-07-13T13:18:07.945Z,3.75
2018-07-13T13:20:36.785Z,3.80
2018-07-13T13:23:05.623Z,3.67
2018-07-13T13:25:34.504Z,3.70
2018-07-13T13:28:03.342Z,3.45
2018-07-13T13:30:32.183Z,3.70
2018-07-13T13:33:01.037Z,4.00
2018-07-13T13:35:29.942Z,3.60
2018-07-13T13:37:59.474Z,3.40
2018-07-13T13:40:28.317Z,3.35
2018-07-13T13:42:57.160Z,3.62
2018-07-13T13:45:26.030Z,3.90
2018-07-13T13:47:54.894Z,3.62
2018-07-13T13:50:23.734Z,3.37
2018-07-13T13:52:52.566Z,3.70
2018-07-13T13:55:21.406Z,3.80
2018-07-13T13:57:50.240Z,4.07
2018-07-13T14:00:19.090Z,3.50
2018-07-13T14:02:47.941Z,3.45
2018-07-13T14:05:16.821Z,3.72
2018-07-13T14:07:46.381Z,3.47
2018-07-13T14:10:15.228Z,3.53
2018-07-13T14:12:44.093Z,3.20
2018-07-13T14:15:12.946Z,3.17
2018-07-13T14:17:41.789Z,3.17
2018-07-13T14:20:10.665Z,2.97
2018-07-13T14:22:40.213Z,3.25
2018-07-13T14:25:09.053Z,3.30
2018-07-13T14:27:37.899Z,3.58
2018-07-13T14:30:06.747Z,3.40
2018-07-13T14:32:35.578Z,3.17
2018-07-13T14:35:04.435Z,3.55
2018-07-13T14:37:33.271Z,3.30
2018-07-13T14:40:02.135Z,3.10
2018-07-13T14:42:30.967Z,3.33
2018-07-13T14:44:59.820Z,2.92
2018-07-13T14:48:02.845Z,3.00
2018-07-13T14:50:31.708Z,3.78
2018-07-13T14:53:00.608Z,3.17
2018-07-13T14:55:29.401Z,3.62
2018-07-13T14:57:58.239Z,3.15
2018-07-13T15:00:27.084Z,3.12
2018-07-13T15:02:55.935Z,3.20
2018-07-13T15:05:24.776Z,3.10
2018-07-13T15:07:53.612Z,3.10
2018-07-13T15:10:22.510Z,3.25
2018-07-13T15:12:51.314Z,3.00
2018-07-13T15:15:20.315Z,3.03
2018-07-13T15:17:49.011Z,2.90
2018-07-13T15:20:17.835Z,2.83
2018-07-13T15:22:46.677Z,3.37
2018-07-13T15:25:15.522Z,3.05
2018-07-13T15:27:44.375Z,2.87
2018-07-13T15:30:13.221Z,3.30
2018-07-13T15:32:42.039Z,3.00
2018-07-13T15:35:11.615Z,2.80
2018-07-13T15:37:40.450Z,2.90
2018-07-13T15:40:09.291Z,3.17
2018-07-13T15:42:38.135Z,2.87
2018-07-13T15:45:07.011Z,2.70
2018-07-13T15:47:36.585Z,2.95
2018-07-13T15:50:05.497Z,2.70
2018-07-13T15:52:34.267Z,2.70
2018-07-13T15:55:03.113Z,2.60
2018-07-13T15:57:32.018Z,2.70
2018-07-13T16:00:00.822Z,2.55
2018-07-13T16:02:29.655Z,2.67
2018-07-13T16:04:59.233Z,2.42
2018-07-13T16:07:28.094Z,2.40
2018-07-13T16:09:56.932Z,2.33
2018-07-13T16:12:25.771Z,2.28
2018-07-13T16:14:54.621Z,2.53
2018-07-13T16:17:24.209Z,2.70
2018-07-13T16:19:53.043Z,2.62
2018-07-13T16:22:21.886Z,2.70
2018-07-13T16:24:50.734Z,2.53
2018-07-13T16:27:19.580Z,2.50
2018-07-13T16:29:49.161Z,2.92
2018-07-13T16:32:18.009Z,2.72
2018-07-13T16:34:46.859Z,2.65
2018-07-13T16:37:15.703Z,2.47
2018-07-13T16:39:44.545Z,2.60
2018-07-13T16:42:14.126Z,2.60
2018-07-13T16:44:42.965Z,2.60
2018-07-13T16:47:11.806Z,2.78
2018-07-13T16:49:40.653Z,3.47
2018-07-13T16:52:09.507Z,2.70
2018-07-13T16:54:38.410Z,2.58
2018-07-13T16:57:07.990Z,2.80
2018-07-13T16:59:37.436Z,2.80
2018-07-13T17:02:06.274Z,2.72
2018-07-13T17:04:35.105Z,2.83
2018-07-13T17:07:03.948Z,2.67
2018-07-13T17:09:32.777Z,2.40
2018-07-13T17:12:01.646Z,2.70
2018-07-13T17:14:30.470Z,2.55
2018-07-13T17:16:59.307Z,3.28
2018-07-13T17:19:28.144Z,3.10
2018-07-13T17:21:57.002Z,3.33
2018-07-13T17:24:25.840Z,2.60
2018-07-13T17:26:54.674Z,3.42
2018-07-13T17:29:23.522Z,2.70
2018-07-13T17:31:52.365Z,2.60
2018-07-13T17:34:21.950Z,2.33
2018-07-13T17:36:50.801Z,2.55
2018-07-13T17:39:19.641Z,2.70
2018-07-13T17:41:48.487Z,2.70
2018-07-13T17:44:17.349Z,2.50
2018-07-13T17:46:46.200Z,2.42
2018-07-13T17:49:15.046Z,2.55
2018-07-13T17:51:43.897Z,2.30
2018-07-13T17:54:13.476Z,2.28
2018-07-13T17:56:42.316Z,2.67
2018-07-13T17:59:11.151Z,2.35
2018-07-13T18:01:39.986Z,2.55
2018-07-13T18:04:09.589Z,2.78
2018-07-13T18:06:39.247Z,2.33
2018-07-13T18:09:07.997Z,2.40
2018-07-13T18:11:36.831Z,2.45
2018-07-13T18:14:05.951Z,2.60
2018-07-13T18:16:34.797Z,2.75
2018-07-13T18:19:03.642Z,3.17
2018-07-13T18:21:33.271Z,2.75
2018-07-13T18:24:02.082Z,3.00
2018-07-13T18:26:30.929Z,3.03
2018-07-13T18:29:00.515Z,3.22
2018-07-13T18:31:29.376Z,2.90
2018-07-13T18:33:58.210Z,3.12
2018-07-13T18:36:27.045Z,2.80
2018-07-13T18:38:55.893Z,3.10
2018-07-13T18:41:24.746Z,3.03
2018-07-13T18:43:53.584Z,2.97
2018-07-13T18:46:23.169Z,2.80
2018-07-13T18:48:52.743Z,2.90
2018-07-13T18:51:21.587Z,3.00
2018-07-13T18:53:50.431Z,3.00
2018-07-13T18:56:19.279Z,3.20
2018-07-13T18:58:48.171Z,2.95
2018-07-13T19:01:17.029Z,2.90
2018-07-13T19:03:45.838Z,3.00
2018-07-13T19:06:14.680Z,6.53
2018-07-13T19:08:43.513Z,2.97
2018-07-13T19:11:12.359Z,3.10
2018-07-13T19:13:41.200Z,2.75
2018-07-13T19:16:10.064Z,3.00
2018-07-13T19:18:38.927Z,3.05
2018-07-13T19:21:07.778Z,2.85
2018-07-13T19:23:36.620Z,2.80
2018-07-13T19:26:05.466Z,3.10
2018-07-13T19:28:34.311Z,3.00
2018-07-13T19:31:03.207Z,2.60
2018-07-13T19:33:32.066Z,2.80
2018-07-13T19:36:00.934Z,2.70
2018-07-13T19:38:29.715Z,2.85
2018-07-13T19:40:58.554Z,2.90
2018-07-13T19:43:27.410Z,2.95
2018-07-13T19:45:56.248Z,2.78
2018-07-13T19:48:25.101Z,2.75
2018-07-13T19:50:53.947Z,2.53
2018-07-13T19:53:22.803Z,2.95
2018-07-13T19:55:51.657Z,2.80
2018-07-13T19:58:20.491Z,2.50
2018-07-13T20:00:49.341Z,2.58
2018-07-13T20:03:18.184Z,2.40
2018-07-13T20:05:47.030Z,2.97
2018-07-13T20:08:15.867Z,2.65
2018-07-13T20:10:44.714Z,2.75
2018-07-13T20:13:13.580Z,2.90
2018-07-13T20:15:42.463Z,2.50
2018-07-13T20:18:11.303Z,3.05
2018-07-13T20:20:40.903Z,2.72
2018-07-13T20:23:10.493Z,2.75
2018-07-13T20:25:39.322Z,3.15
2018-07-13T20:28:08.175Z,2.95
2018-07-13T20:30:37.037Z,3.28
2018-07-13T20:33:05.882Z,3.30
2018-07-13T20:35:34.767Z,3.00
2018-07-13T20:38:04.351Z,3.03
2018-07-13T20:40:33.193Z,3.05
2018-07-13T20:43:02.044Z,3.00
2018-07-13T20:45:31.636Z,3.12
2018-07-13T20:48:00.505Z,3.07
2018-07-13T20:50:29.360Z,3.20
2018-07-13T20:52:58.205Z,2.90
2018-07-13T20:55:27.069Z,2.72
2018-07-13T20:57:55.906Z,3.00
2018-07-13T21:00:25.496Z,3.03
2018-07-13T21:02:54.372Z,3.30
2018-07-13T21:05:23.212Z,2.70
2018-07-13T21:07:52.068Z,3.12
2018-07-13T21:10:21.729Z,2.85
2018-07-13T21:12:50.517Z,3.60
2018-07-13T21:15:19.385Z,3.17
2018-07-13T21:17:48.245Z,3.20
2018-07-13T21:20:17.167Z,2.90
2018-07-13T21:22:45.964Z,3.50
2018-07-13T21:25:14.837Z,3.22
2018-07-13T21:27:43.688Z,2.67
2018-07-13T21:30:13.126Z,3.20
2018-07-13T21:32:42.716Z,3.30
2018-07-13T21:35:12.301Z,3.20
2018-07-13T21:37:41.134Z,3.67
2018-07-13T21:40:09.974Z,3.20
2018-07-13T21:42:38.833Z,3.37
2018-07-13T21:45:07.702Z,3.60
2018-07-13T21:47:36.527Z,3.62
2018-07-13T21:50:05.368Z,4.00
2018-07-13T21:52:34.960Z,3.80
2018-07-13T21:55:04.542Z,4.05
2018-07-13T21:57:33.405Z,4.00
2018-07-13T22:00:02.251Z,3.80
2018-07-13T22:02:31.119Z,3.40
2018-07-13T22:04:59.930Z,3.97
2018-07-13T22:07:28.772Z,3.87
2018-07-13T22:09:57.629Z,3.90
2018-07-13T22:12:26.504Z,3.85
2018-07-13T22:14:56.099Z,3.85
2018-07-13T22:17:25.715Z,4.10
2018-07-13T22:19:55.288Z,3.70
2018-07-13T22:22:24.121Z,3.92
2018-07-13T22:24:52.975Z,3.78
2018-07-13T22:27:21.812Z,4.20
2018-07-13T22:29:50.657Z,4.37
2018-07-13T22:32:19.513Z,3.97
2018-07-13T22:34:48.376Z,4.20
2018-07-13T22:37:17.208Z,4.25
2018-07-13T22:39:46.048Z,3.87
2018-07-13T22:42:14.137Z,3.85
2018-07-13T22:44:42.970Z,3.53
2018-07-13T22:47:11.807Z,4.00
2018-07-13T22:49:40.684Z,4.03
2018-07-13T22:52:10.279Z,4.22
2018-07-13T22:54:39.114Z,4.00
2018-07-13T22:57:07.949Z,3.80
2018-07-13T22:59:36.801Z,4.12
2018-07-13T23:02:05.656Z,4.40
2018-07-13T23:04:34.487Z,3.83
2018-07-13T23:07:03.324Z,3.92
2018-07-13T23:09:32.912Z,4.53
2018-07-13T23:12:01.762Z,4.53
2018-07-13T23:14:30.595Z,4.03
2018-07-13T23:16:59.440Z,3.83
2018-07-13T23:19:28.266Z,4.37
2018-07-13T23:21:57.110Z,4.40
2018-07-13T23:24:25.964Z,4.10
2018-07-13T23:26:55.559Z,4.15
2018-07-13T23:29:24.442Z,4.50
2018-07-13T23:31:53.282Z,4.30
2018-07-13T23:34:22.132Z,4.30
2018-07-13T23:36:50.995Z,3.90
2018-07-13T23:39:19.824Z,4.65
2018-07-13T23:41:48.655Z,4.00
2018-07-13T23:44:17.496Z,3.90
2018-07-13T23:46:47.070Z,4.22
2018-07-13T23:49:15.903Z,4.68
2018-07-13T23:51:45.486Z,4.55
2018-07-13T23:54:14.329Z,4.03
2018-07-13T23:56:43.176Z,4.70
2018-07-13T23:59:12.031Z,5.18
